sensor_id;sensor_type;location;lat;lon;timestamp;P1;durP1;ratioP1;P2;durP2;ratioP2
10248;SDS011;5169;50.560;9.714;2022-08-05T00:01:20;6.88;;;2.67;;
10248;SDS011;5169;50.560;9.714;2022-08-05T00:03:48;5.03;;;2.40;;
10248;SDS011;5169;50.560;9.714;2022-08-05T00:06:14;6.88;;;2.58;;
10248;SDS011;5169;50.560;9.714;2022-08-05T00:08:41;5.43;;;2.63;;
10248;SDS011;5169;50.560;9.714;2022-08-05T00:11:12;4.78;;;2.50;;
10248;SDS011;5169;50.560;9.714;2022-08-05T00:13:39;9.75;;;2.88;;
10248;SDS011;5169;50.560;9.714;2022-08-05T00:16:07;4.90;;;2.50;;
10248;SDS011;5169;50.560;9.714;2022-08-05T00:18:40;9.93;;;2.47;;
10248;SDS011;5169;50.560;9.714;2022-08-05T00:21:08;5.70;;;2.70;;
10248;SDS011;5169;50.560;9.714;2022-08-05T00:23:37;4.28;;;2.38;;
10248;SDS011;5169;50.560;9.714;2022-08-05T00:26:03;7.25;;;2.53;;
10248;SDS011;5169;50.560;9.714;2022-08-05T00:28:29;8.23;;;2.40;;
10248;SDS011;5169;50.560;9.714;2022-08-05T00:31:00;3.72;;;2.50;;
10248;SDS011;5169;50.560;9.714;2022-08-05T00:33:28;7.90;;;3.15;;
10248;SDS011;5169;50.560;9.714;2022-08-05T00:35:54;6.10;;;2.90;;
10248;SDS011;5169;50.560;9.714;2022-08-05T00:38:20;4.20;;;2.90;;
10248;SDS011;5169;50.560;9.714;2022-08-05T00:40:47;8.65;;;3.22;;
10248;SDS011;5169;50.560;9.714;2022-08-05T00:43:18;5.20;;;2.37;;
10248;SDS011;5169;50.560;9.714;2022-08-05T00:45:44;6.68;;;2.60;;
10248;SDS011;5169;50.560;9.714;2022-08-05T00:48:14;8.77;;;2.88;;
10248;SDS011;5169;50.560;9.714;2022-08-05T00:50:42;5.40;;;2.40;;
10248;SDS011;5169;50.560;9.714;2022-08-05T00:53:13;7.30;;;2.57;;
10248;SDS011;5169;50.560;9.714;2022-08-05T00:55:43;4.27;;;2.60;;
10248;SDS011;5169;50.560;9.714;2022-08-05T00:58:10;5.33;;;2.50;;
10248;SDS011;5169;50.560;9.714;2022-08-05T01:00:36;5.53;;;2.73;;
10248;SDS011;5169;50.560;9.714;2022-08-05T01:03:02;5.20;;;2.60;;
10248;SDS011;5169;50.560;9.714;2022-08-05T01:05:34;5.90;;;3.03;;
10248;SDS011;5169;50.560;9.714;2022-08-05T01:08:00;7.20;;;2.63;;
10248;SDS011;5169;50.560;9.714;2022-08-05T01:10:29;3.83;;;2.63;;
10248;SDS011;5169;50.560;9.714;2022-08-05T01:13:15;4.20;;;2.50;;
10248;SDS011;5169;50.560;9.714;2022-08-05T01:15:49;6.20;;;2.60;;
10248;SDS011;5169;50.560;9.714;2022-08-05T01:18:21;4.33;;;2.50;;
10248;SDS011;5169;50.560;9.714;2022-08-05T01:20:59;2.67;;;2.27;;
10248;SDS011;5169;50.560;9.714;2022-08-05T01:29:30;6.57;;;2.57;;
10248;SDS011;5169;50.560;9.714;2022-08-05T01:31:47;4.67;;;2.70;;
10248;SDS011;5169;50.560;9.714;2022-08-05T01:36:57;3.97;;;2.80;;
10248;SDS011;5169;50.560;9.714;2022-08-05T01:39:41;7.77;;;2.80;;
10248;SDS011;5169;50.560;9.714;2022-08-05T01:42:12;7.40;;;3.13;;
10248;SDS011;5169;50.560;9.714;2022-08-05T01:44:40;7.43;;;3.53;;
10248;SDS011;5169;50.560;9.714;2022-08-05T01:47:10;6.03;;;3.13;;
10248;SDS011;5169;50.560;9.714;2022-08-05T01:49:39;4.80;;;3.10;;
10248;SDS011;5169;50.560;9.714;2022-08-05T01:52:06;5.17;;;3.10;;
10248;SDS011;5169;50.560;9.714;2022-08-05T01:54:44;8.87;;;3.90;;
10248;SDS011;5169;50.560;9.714;2022-08-05T01:57:32;8.63;;;4.27;;
10248;SDS011;5169;50.560;9.714;2022-08-05T02:00:01;8.27;;;3.70;;
10248;SDS011;5169;50.560;9.714;2022-08-05T02:02:29;5.37;;;4.37;;
10248;SDS011;5169;50.560;9.714;2022-08-05T02:04:57;9.00;;;4.00;;
10248;SDS011;5169;50.560;9.714;2022-08-05T02:07:27;8.30;;;4.43;;
10248;SDS011;5169;50.560;9.714;2022-08-05T02:09:55;6.70;;;3.90;;
10248;SDS011;5169;50.560;9.714;2022-08-05T02:17:40;12.97;;;4.17;;
10248;SDS011;5169;50.560;9.714;2022-08-05T02:20:13;7.07;;;3.67;;
10248;SDS011;5169;50.560;9.714;2022-08-05T02:22:45;5.43;;;3.80;;
10248;SDS011;5169;50.560;9.714;2022-08-05T02:25:18;8.73;;;3.67;;
10248;SDS011;5169;50.560;9.714;2022-08-05T02:27:49;7.10;;;4.00;;
10248;SDS011;5169;50.560;9.714;2022-08-05T02:30:16;6.77;;;3.83;;
10248;SDS011;5169;50.560;9.714;2022-08-05T02:32:44;6.97;;;4.10;;
10248;SDS011;5169;50.560;9.714;2022-08-05T02:35:17;6.30;;;4.17;;
10248;SDS011;5169;50.560;9.714;2022-08-05T02:37:45;6.63;;;3.60;;
10248;SDS011;5169;50.560;9.714;2022-08-05T02:40:15;5.90;;;3.63;;
10248;SDS011;5169;50.560;9.714;2022-08-05T02:42:41;5.43;;;3.60;;
10248;SDS011;5169;50.560;9.714;2022-08-05T02:45:08;7.93;;;3.73;;
10248;SDS011;5169;50.560;9.714;2022-08-05T02:47:37;5.97;;;3.43;;
10248;SDS011;5169;50.560;9.714;2022-08-05T02:50:05;9.03;;;3.77;;
10248;SDS011;5169;50.560;9.714;2022-08-05T02:52:32;6.60;;;3.33;;
10248;SDS011;5169;50.560;9.714;2022-08-05T02:55:02;6.30;;;3.70;;
10248;SDS011;5169;50.560;9.714;2022-08-05T02:57:33;7.33;;;3.43;;
10248;SDS011;5169;50.560;9.714;2022-08-05T03:00:04;6.03;;;3.53;;
10248;SDS011;5169;50.560;9.714;2022-08-05T03:02:35;5.20;;;3.13;;
10248;SDS011;5169;50.560;9.714;2022-08-05T03:05:04;6.90;;;3.97;;
10248;SDS011;5169;50.560;9.714;2022-08-05T03:07:35;5.37;;;3.27;;
10248;SDS011;5169;50.560;9.714;2022-08-05T03:10:05;6.43;;;3.60;;
10248;SDS011;5169;50.560;9.714;2022-08-05T03:12:35;6.27;;;3.50;;
10248;SDS011;5169;50.560;9.714;2022-08-05T03:15:02;7.30;;;3.43;;
10248;SDS011;5169;50.560;9.714;2022-08-05T03:17:29;7.90;;;3.40;;
10248;SDS011;5169;50.560;9.714;2022-08-05T03:19:54;5.53;;;3.57;;
10248;SDS011;5169;50.560;9.714;2022-08-05T03:22:20;3.70;;;3.30;;
10248;SDS011;5169;50.560;9.714;2022-08-05T03:24:47;8.27;;;3.60;;
10248;SDS011;5169;50.560;9.714;2022-08-05T03:27:14;3.67;;;3.17;;
10248;SDS011;5169;50.560;9.714;2022-08-05T03:29:40;6.37;;;3.23;;
10248;SDS011;5169;50.560;9.714;2022-08-05T03:32:07;7.67;;;4.20;;
10248;SDS011;5169;50.560;9.714;2022-08-05T03:34:33;6.33;;;3.57;;
10248;SDS011;5169;50.560;9.714;2022-08-05T03:37:00;7.07;;;3.20;;
10248;SDS011;5169;50.560;9.714;2022-08-05T03:39:26;7.07;;;3.40;;
10248;SDS011;5169;50.560;9.714;2022-08-05T03:41:53;4.23;;;3.53;;
10248;SDS011;5169;50.560;9.714;2022-08-05T03:44:19;7.50;;;3.80;;
10248;SDS011;5169;50.560;9.714;2022-08-05T03:46:45;5.33;;;3.47;;
10248;SDS011;5169;50.560;9.714;2022-08-05T03:49:10;5.40;;;3.40;;
10248;SDS011;5169;50.560;9.714;2022-08-05T03:51:44;4.67;;;3.20;;
10248;SDS011;5169;50.560;9.714;2022-08-05T03:54:30;4.90;;;3.00;;
10248;SDS011;5169;50.560;9.714;2022-08-05T03:57:04;4.20;;;3.30;;
10248;SDS011;5169;50.560;9.714;2022-08-05T03:59:33;5.83;;;2.97;;
10248;SDS011;5169;50.560;9.714;2022-08-05T04:02:04;5.47;;;3.57;;
10248;SDS011;5169;50.560;9.714;2022-08-05T04:04:32;8.90;;;3.83;;
10248;SDS011;5169;50.560;9.714;2022-08-05T04:06:59;6.93;;;3.50;;
10248;SDS011;5169;50.560;9.714;2022-08-05T04:09:28;5.60;;;4.00;;
10248;SDS011;5169;50.560;9.714;2022-08-05T04:11:54;5.57;;;3.67;;
10248;SDS011;5169;50.560;9.714;2022-08-05T04:14:20;6.40;;;3.73;;
10248;SDS011;5169;50.560;9.714;2022-08-05T04:16:46;7.10;;;3.70;;
10248;SDS011;5169;50.560;9.714;2022-08-05T04:19:13;8.53;;;3.93;;
10248;SDS011;5169;50.560;9.714;2022-08-05T04:21:39;5.30;;;3.20;;
10248;SDS011;5169;50.560;9.714;2022-08-05T04:24:05;5.27;;;3.23;;
10248;SDS011;5169;50.560;9.714;2022-08-05T04:26:31;7.03;;;3.40;;
10248;SDS011;5169;50.560;9.714;2022-08-05T04:28:57;5.13;;;3.60;;
10248;SDS011;5169;50.560;9.714;2022-08-05T04:31:23;7.97;;;3.73;;
10248;SDS011;5169;50.560;9.714;2022-08-05T04:33:48;5.60;;;3.03;;
10248;SDS011;5169;50.560;9.714;2022-08-05T04:36:17;5.63;;;3.30;;
10248;SDS011;5169;50.560;9.714;2022-08-05T04:38:43;5.70;;;3.67;;
10248;SDS011;5169;50.560;9.714;2022-08-05T04:41:11;6.23;;;3.30;;
10248;SDS011;5169;50.560;9.714;2022-08-05T04:43:37;5.07;;;3.23;;
10248;SDS011;5169;50.560;9.714;2022-08-05T04:46:03;4.03;;;3.50;;
10248;SDS011;5169;50.560;9.714;2022-08-05T04:48:29;6.17;;;3.60;;
10248;SDS011;5169;50.560;9.714;2022-08-05T04:50:55;4.90;;;3.80;;
10248;SDS011;5169;50.560;9.714;2022-08-05T04:53:21;8.00;;;4.30;;
10248;SDS011;5169;50.560;9.714;2022-08-05T04:55:47;11.63;;;4.57;;
10248;SDS011;5169;50.560;9.714;2022-08-05T04:58:13;9.20;;;4.80;;
10248;SDS011;5169;50.560;9.714;2022-08-05T05:00:41;5.70;;;4.33;;
10248;SDS011;5169;50.560;9.714;2022-08-05T05:03:10;7.40;;;4.40;;
10248;SDS011;5169;50.560;9.714;2022-08-05T05:05:36;5.50;;;4.37;;
10248;SDS011;5169;50.560;9.714;2022-08-05T05:08:06;7.93;;;4.03;;
10248;SDS011;5169;50.560;9.714;2022-08-05T05:10:40;7.97;;;4.03;;
10248;SDS011;5169;50.560;9.714;2022-08-05T05:13:09;5.33;;;3.47;;
10248;SDS011;5169;50.560;9.714;2022-08-05T05:15:38;4.00;;;3.60;;
10248;SDS011;5169;50.560;9.714;2022-08-05T05:18:06;6.43;;;3.70;;
10248;SDS011;5169;50.560;9.714;2022-08-05T05:20:33;7.57;;;4.47;;
10248;SDS011;5169;50.560;9.714;2022-08-05T05:23:00;7.43;;;4.17;;
10248;SDS011;5169;50.560;9.714;2022-08-05T05:25:31;5.63;;;4.13;;
10248;SDS011;5169;50.560;9.714;2022-08-05T05:27:56;6.97;;;4.30;;
10248;SDS011;5169;50.560;9.714;2022-08-05T05:30:22;6.27;;;4.10;;
10248;SDS011;5169;50.560;9.714;2022-08-05T05:32:48;5.60;;;4.60;;
10248;SDS011;5169;50.560;9.714;2022-08-05T05:35:16;7.87;;;4.93;;
10248;SDS011;5169;50.560;9.714;2022-08-05T05:37:49;7.17;;;5.27;;
10248;SDS011;5169;50.560;9.714;2022-08-05T05:40:19;8.83;;;4.60;;
10248;SDS011;5169;50.560;9.714;2022-08-05T05:42:49;5.23;;;4.30;;
10248;SDS011;5169;50.560;9.714;2022-08-05T05:45:15;6.23;;;4.57;;
10248;SDS011;5169;50.560;9.714;2022-08-05T05:47:43;4.60;;;4.10;;
10248;SDS011;5169;50.560;9.714;2022-08-05T05:50:14;7.90;;;4.30;;
10248;SDS011;5169;50.560;9.714;2022-08-05T05:52:42;5.43;;;4.23;;
10248;SDS011;5169;50.560;9.714;2022-08-05T05:55:09;5.50;;;3.73;;
10248;SDS011;5169;50.560;9.714;2022-08-05T05:57:36;6.23;;;4.13;;
10248;SDS011;5169;50.560;9.714;2022-08-05T06:00:08;6.07;;;4.37;;
10248;SDS011;5169;50.560;9.714;2022-08-05T06:02:35;5.47;;;4.30;;
10248;SDS011;5169;50.560;9.714;2022-08-05T06:05:05;8.80;;;4.50;;
10248;SDS011;5169;50.560;9.714;2022-08-05T06:07:35;5.33;;;4.27;;
10248;SDS011;5169;50.560;9.714;2022-08-05T06:10:03;8.77;;;4.80;;
10248;SDS011;5169;50.560;9.714;2022-08-05T06:12:30;6.63;;;4.40;;
10248;SDS011;5169;50.560;9.714;2022-08-05T06:14:59;7.40;;;4.77;;
10248;SDS011;5169;50.560;9.714;2022-08-05T06:17:25;4.93;;;4.10;;
10248;SDS011;5169;50.560;9.714;2022-08-05T06:19:52;7.07;;;4.80;;
10248;SDS011;5169;50.560;9.714;2022-08-05T06:22:22;7.27;;;4.60;;
10248;SDS011;5169;50.560;9.714;2022-08-05T06:24:49;8.23;;;4.57;;
10248;SDS011;5169;50.560;9.714;2022-08-05T06:27:15;4.70;;;4.20;;
10248;SDS011;5169;50.560;9.714;2022-08-05T06:29:41;7.20;;;4.80;;
10248;SDS011;5169;50.560;9.714;2022-08-05T06:32:07;6.03;;;4.37;;
10248;SDS011;5169;50.560;9.714;2022-08-05T06:34:33;6.43;;;4.30;;
10248;SDS011;5169;50.560;9.714;2022-08-05T06:37:01;4.80;;;4.00;;
10248;SDS011;5169;50.560;9.714;2022-08-05T06:39:27;4.70;;;4.07;;
10248;SDS011;5169;50.560;9.714;2022-08-05T06:41:52;5.37;;;3.80;;
10248;SDS011;5169;50.560;9.714;2022-08-05T06:44:19;4.27;;;3.60;;
10248;SDS011;5169;50.560;9.714;2022-08-05T06:46:45;5.17;;;4.10;;
10248;SDS011;5169;50.560;9.714;2022-08-05T06:49:11;5.70;;;4.20;;
10248;SDS011;5169;50.560;9.714;2022-08-05T06:51:36;5.20;;;4.20;;
10248;SDS011;5169;50.560;9.714;2022-08-05T06:54:02;5.30;;;3.93;;
10248;SDS011;5169;50.560;9.714;2022-08-05T06:56:31;4.77;;;4.37;;
10248;SDS011;5169;50.560;9.714;2022-08-05T06:58:59;7.23;;;4.43;;
10248;SDS011;5169;50.560;9.714;2022-08-05T07:01:25;6.77;;;4.30;;
10248;SDS011;5169;50.560;9.714;2022-08-05T07:03:51;5.67;;;4.10;;
10248;SDS011;5169;50.560;9.714;2022-08-05T07:06:16;4.20;;;3.63;;
10248;SDS011;5169;50.560;9.714;2022-08-05T07:08:42;5.87;;;3.93;;
10248;SDS011;5169;50.560;9.714;2022-08-05T07:11:08;4.23;;;3.83;;
10248;SDS011;5169;50.560;9.714;2022-08-05T07:13:35;8.80;;;4.03;;
10248;SDS011;5169;50.560;9.714;2022-08-05T07:16:19;7.40;;;4.10;;
10248;SDS011;5169;50.560;9.714;2022-08-05T07:19:03;4.53;;;3.67;;
10248;SDS011;5169;50.560;9.714;2022-08-05T07:21:34;5.43;;;3.90;;
10248;SDS011;5169;50.560;9.714;2022-08-05T07:24:02;6.47;;;4.43;;
10248;SDS011;5169;50.560;9.714;2022-08-05T07:26:28;5.80;;;3.83;;
10248;SDS011;5169;50.560;9.714;2022-08-05T07:28:55;6.97;;;4.07;;
10248;SDS011;5169;50.560;9.714;2022-08-05T07:31:21;6.37;;;4.00;;
10248;SDS011;5169;50.560;9.714;2022-08-05T07:33:49;4.93;;;4.10;;
10248;SDS011;5169;50.560;9.714;2022-08-05T07:36:15;7.10;;;3.80;;
10248;SDS011;5169;50.560;9.714;2022-08-05T07:38:40;6.73;;;4.00;;
10248;SDS011;5169;50.560;9.714;2022-08-05T07:41:07;6.03;;;3.70;;
10248;SDS011;5169;50.560;9.714;2022-08-05T07:43:34;5.97;;;4.10;;
10248;SDS011;5169;50.560;9.714;2022-08-05T07:46:00;5.90;;;3.93;;
10248;SDS011;5169;50.560;9.714;2022-08-05T07:48:26;6.60;;;4.23;;
10248;SDS011;5169;50.560;9.714;2022-08-05T07:50:52;6.20;;;4.43;;
10248;SDS011;5169;50.560;9.714;2022-08-05T07:53:22;5.57;;;3.90;;
10248;SDS011;5169;50.560;9.714;2022-08-05T07:55:48;5.47;;;4.03;;
10248;SDS011;5169;50.560;9.714;2022-08-05T07:58:13;5.73;;;4.20;;
10248;SDS011;5169;50.560;9.714;2022-08-05T08:00:40;4.17;;;3.77;;
10248;SDS011;5169;50.560;9.714;2022-08-05T08:03:09;5.47;;;4.27;;
10248;SDS011;5169;50.560;9.714;2022-08-05T08:05:36;5.40;;;4.40;;
10248;SDS011;5169;50.560;9.714;2022-08-05T08:08:07;6.40;;;4.50;;
10248;SDS011;5169;50.560;9.714;2022-08-05T08:10:39;5.00;;;4.43;;
10248;SDS011;5169;50.560;9.714;2022-08-05T08:13:05;5.50;;;4.33;;
10248;SDS011;5169;50.560;9.714;2022-08-05T08:15:35;7.27;;;4.97;;
10248;SDS011;5169;50.560;9.714;2022-08-05T08:18:01;9.10;;;4.90;;
10248;SDS011;5169;50.560;9.714;2022-08-05T08:20:27;5.70;;;4.50;;
10248;SDS011;5169;50.560;9.714;2022-08-05T08:22:56;5.47;;;4.80;;
10248;SDS011;5169;50.560;9.714;2022-08-05T08:25:23;7.37;;;5.43;;
10248;SDS011;5169;50.560;9.714;2022-08-05T08:27:50;4.90;;;4.30;;
10248;SDS011;5169;50.560;9.714;2022-08-05T08:30:15;5.93;;;4.57;;
10248;SDS011;5169;50.560;9.714;2022-08-05T08:32:43;5.37;;;4.53;;
10248;SDS011;5169;50.560;9.714;2022-08-05T08:35:09;8.83;;;4.90;;
10248;SDS011;5169;50.560;9.714;2022-08-05T08:37:37;6.73;;;4.70;;
10248;SDS011;5169;50.560;9.714;2022-08-05T08:40:03;5.87;;;4.37;;
10248;SDS011;5169;50.560;9.714;2022-08-05T08:42:32;6.60;;;4.77;;
10248;SDS011;5169;50.560;9.714;2022-08-05T08:45:02;7.27;;;4.60;;
10248;SDS011;5169;50.560;9.714;2022-08-05T08:47:28;8.33;;;5.20;;
10248;SDS011;5169;50.560;9.714;2022-08-05T08:49:57;7.00;;;5.27;;
10248;SDS011;5169;50.560;9.714;2022-08-05T08:52:28;7.73;;;4.90;;
10248;SDS011;5169;50.560;9.714;2022-08-05T08:54:55;4.70;;;4.20;;
10248;SDS011;5169;50.560;9.714;2022-08-05T08:57:21;5.17;;;4.40;;
10248;SDS011;5169;50.560;9.714;2022-08-05T08:59:48;6.83;;;5.10;;
10248;SDS011;5169;50.560;9.714;2022-08-05T09:02:18;4.90;;;4.40;;
10248;SDS011;5169;50.560;9.714;2022-08-05T09:04:44;5.07;;;4.57;;
10248;SDS011;5169;50.560;9.714;2022-08-05T09:07:11;9.10;;;4.83;;
10248;SDS011;5169;50.560;9.714;2022-08-05T09:09:37;5.90;;;4.77;;
10248;SDS011;5169;50.560;9.714;2022-08-05T09:12:04;8.07;;;4.80;;
10248;SDS011;5169;50.560;9.714;2022-08-05T09:14:32;4.60;;;4.17;;
10248;SDS011;5169;50.560;9.714;2022-08-05T09:17:06;4.83;;;4.27;;
10248;SDS011;5169;50.560;9.714;2022-08-05T09:19:34;5.60;;;4.17;;
10248;SDS011;5169;50.560;9.714;2022-08-05T09:22:00;4.97;;;4.00;;
10248;SDS011;5169;50.560;9.714;2022-08-05T09:24:26;4.77;;;3.80;;
10248;SDS011;5169;50.560;9.714;2022-08-05T09:26:52;3.70;;;3.40;;
10248;SDS011;5169;50.560;9.714;2022-08-05T09:29:21;5.43;;;3.67;;
10248;SDS011;5169;50.560;9.714;2022-08-05T09:32:10;6.23;;;3.63;;
10248;SDS011;5169;50.560;9.714;2022-08-05T09:34:49;5.03;;;3.67;;
10248;SDS011;5169;50.560;9.714;2022-08-05T09:37:25;4.50;;;3.70;;
10248;SDS011;5169;50.560;9.714;2022-08-05T09:39:52;4.93;;;3.90;;
10248;SDS011;5169;50.560;9.714;2022-08-05T09:42:19;5.00;;;3.53;;
10248;SDS011;5169;50.560;9.714;2022-08-05T09:44:50;4.87;;;3.60;;
10248;SDS011;5169;50.560;9.714;2022-08-05T09:47:21;4.33;;;3.37;;
10248;SDS011;5169;50.560;9.714;2022-08-05T09:49:52;6.47;;;4.07;;
10248;SDS011;5169;50.560;9.714;2022-08-05T09:52:23;4.20;;;3.80;;
10248;SDS011;5169;50.560;9.714;2022-08-05T09:54:53;5.83;;;3.87;;
10248;SDS011;5169;50.560;9.714;2022-08-05T09:57:30;4.73;;;4.20;;
10248;SDS011;5169;50.560;9.714;2022-08-05T09:59:58;7.20;;;4.30;;
10248;SDS011;5169;50.560;9.714;2022-08-05T10:02:35;5.03;;;4.30;;
10248;SDS011;5169;50.560;9.714;2022-08-05T10:05:07;6.03;;;4.30;;
10248;SDS011;5169;50.560;9.714;2022-08-05T10:07:47;4.20;;;3.80;;
10248;SDS011;5169;50.560;9.714;2022-08-05T10:10:25;4.83;;;4.23;;
10248;SDS011;5169;50.560;9.714;2022-08-05T10:13:01;4.47;;;3.87;;
10248;SDS011;5169;50.560;9.714;2022-08-05T10:15:32;5.97;;;4.30;;
10248;SDS011;5169;50.560;9.714;2022-08-05T10:20:45;5.73;;;4.60;;
10248;SDS011;5169;50.560;9.714;2022-08-05T10:23:20;6.00;;;4.47;;
10248;SDS011;5169;50.560;9.714;2022-08-05T10:25:48;4.67;;;4.17;;
10248;SDS011;5169;50.560;9.714;2022-08-05T10:28:14;4.97;;;4.47;;
10248;SDS011;5169;50.560;9.714;2022-08-05T10:30:43;5.30;;;4.43;;
10248;SDS011;5169;50.560;9.714;2022-08-05T10:33:09;5.50;;;4.60;;
10248;SDS011;5169;50.560;9.714;2022-08-05T10:35:37;5.60;;;4.27;;
10248;SDS011;5169;50.560;9.714;2022-08-05T10:38:05;5.20;;;4.40;;
10248;SDS011;5169;50.560;9.714;2022-08-05T10:40:33;5.50;;;4.27;;
10248;SDS011;5169;50.560;9.714;2022-08-05T10:45:59;5.13;;;4.47;;
10248;SDS011;5169;50.560;9.714;2022-08-05T10:48:30;4.13;;;3.73;;
10248;SDS011;5169;50.560;9.714;2022-08-05T10:51:10;6.47;;;4.50;;
10248;SDS011;5169;50.560;9.714;2022-08-05T10:56:19;4.63;;;4.20;;
10248;SDS011;5169;50.560;9.714;2022-08-05T10:58:46;5.67;;;4.10;;
10248;SDS011;5169;50.560;9.714;2022-08-05T11:01:14;4.87;;;3.97;;
10248;SDS011;5169;50.560;9.714;2022-08-05T11:09:26;6.20;;;4.67;;
10248;SDS011;5169;50.560;9.714;2022-08-05T11:12:00;4.60;;;3.60;;
10248;SDS011;5169;50.560;9.714;2022-08-05T11:14:35;4.90;;;3.97;;
10248;SDS011;5169;50.560;9.714;2022-08-05T11:19:49;4.20;;;3.80;;
10248;SDS011;5169;50.560;9.714;2022-08-05T11:36:01;5.93;;;4.37;;
10248;SDS011;5169;50.560;9.714;2022-08-05T11:41:24;5.10;;;4.53;;
10248;SDS011;5169;50.560;9.714;2022-08-05T11:46:17;6.13;;;4.50;;
10248;SDS011;5169;50.560;9.714;2022-08-05T11:48:53;6.30;;;4.47;;
10248;SDS011;5169;50.560;9.714;2022-08-05T11:51:20;5.07;;;4.57;;
10248;SDS011;5169;50.560;9.714;2022-08-05T11:53:47;4.77;;;4.20;;
10248;SDS011;5169;50.560;9.714;2022-08-05T11:56:13;4.33;;;3.73;;
10248;SDS011;5169;50.560;9.714;2022-08-05T11:58:40;5.60;;;3.90;;
10248;SDS011;5169;50.560;9.714;2022-08-05T12:01:14;4.60;;;3.80;;
10248;SDS011;5169;50.560;9.714;2022-08-05T12:06:10;4.17;;;3.70;;
10248;SDS011;5169;50.560;9.714;2022-08-05T12:11:14;5.63;;;3.40;;
10248;SDS011;5169;50.560;9.714;2022-08-05T12:14:01;4.20;;;3.37;;
10248;SDS011;5169;50.560;9.714;2022-08-05T12:16:35;4.53;;;3.40;;
10248;SDS011;5169;50.560;9.714;2022-08-05T12:19:06;3.70;;;3.30;;
10248;SDS011;5169;50.560;9.714;2022-08-05T12:21:48;4.83;;;3.40;;
10248;SDS011;5169;50.560;9.714;2022-08-05T12:26:51;3.60;;;3.13;;
10248;SDS011;5169;50.560;9.714;2022-08-05T12:29:23;3.47;;;3.17;;
10248;SDS011;5169;50.560;9.714;2022-08-05T12:31:54;4.03;;;3.00;;
10248;SDS011;5169;50.560;9.714;2022-08-05T12:34:34;3.53;;;3.00;;
10248;SDS011;5169;50.560;9.714;2022-08-05T12:37:05;3.37;;;3.07;;
10248;SDS011;5169;50.560;9.714;2022-08-05T12:39:38;3.17;;;2.83;;
10248;SDS011;5169;50.560;9.714;2022-08-05T12:42:08;2.87;;;2.67;;
10248;SDS011;5169;50.560;9.714;2022-08-05T12:44:42;5.80;;;2.70;;
10248;SDS011;5169;50.560;9.714;2022-08-05T12:47:09;3.03;;;2.73;;
10248;SDS011;5169;50.560;9.714;2022-08-05T12:49:53;5.97;;;3.00;;
10248;SDS011;5169;50.560;9.714;2022-08-05T12:52:18;4.10;;;2.93;;
10248;SDS011;5169;50.560;9.714;2022-08-05T12:54:45;3.90;;;2.90;;
10248;SDS011;5169;50.560;9.714;2022-08-05T12:57:13;4.53;;;3.00;;
10248;SDS011;5169;50.560;9.714;2022-08-05T12:59:44;2.83;;;2.55;;
10248;SDS011;5169;50.560;9.714;2022-08-05T13:02:15;3.90;;;3.00;;
10248;SDS011;5169;50.560;9.714;2022-08-05T13:04:46;3.53;;;3.10;;
10248;SDS011;5169;50.560;9.714;2022-08-05T13:07:16;3.47;;;3.00;;
10248;SDS011;5169;50.560;9.714;2022-08-05T13:09:50;5.43;;;2.95;;
10248;SDS011;5169;50.560;9.714;2022-08-05T13:12:18;3.95;;;2.80;;
10248;SDS011;5169;50.560;9.714;2022-08-05T13:14:50;3.88;;;2.88;;
10248;SDS011;5169;50.560;9.714;2022-08-05T13:17:21;3.45;;;3.05;;
10248;SDS011;5169;50.560;9.714;2022-08-05T13:22:33;4.43;;;3.10;;
10248;SDS011;5169;50.560;9.714;2022-08-05T13:25:10;4.60;;;3.20;;
10248;SDS011;5169;50.560;9.714;2022-08-05T13:27:54;4.80;;;2.90;;
10248;SDS011;5169;50.560;9.714;2022-08-05T13:30:23;3.20;;;2.90;;
10248;SDS011;5169;50.560;9.714;2022-08-05T13:32:50;6.70;;;3.90;;
10248;SDS011;5169;50.560;9.714;2022-08-05T13:35:18;3.50;;;2.87;;
10248;SDS011;5169;50.560;9.714;2022-08-05T13:37:45;4.27;;;3.20;;
10248;SDS011;5169;50.560;9.714;2022-08-05T13:40:14;4.53;;;3.93;;
10248;SDS011;5169;50.560;9.714;2022-08-05T13:42:43;4.47;;;3.60;;
10248;SDS011;5169;50.560;9.714;2022-08-05T13:45:09;5.40;;;3.85;;
10248;SDS011;5169;50.560;9.714;2022-08-05T13:47:36;6.07;;;3.60;;
10248;SDS011;5169;50.560;9.714;2022-08-05T13:50:05;4.60;;;3.50;;
10248;SDS011;5169;50.560;9.714;2022-08-05T13:52:31;5.57;;;3.47;;
10248;SDS011;5169;50.560;9.714;2022-08-05T13:54:57;4.13;;;3.53;;
10248;SDS011;5169;50.560;9.714;2022-08-05T13:57:23;5.53;;;3.53;;
10248;SDS011;5169;50.560;9.714;2022-08-05T13:59:49;5.03;;;3.93;;
10248;SDS011;5169;50.560;9.714;2022-08-05T14:02:15;4.63;;;3.67;;
10248;SDS011;5169;50.560;9.714;2022-08-05T14:04:45;4.03;;;3.30;;
10248;SDS011;5169;50.560;9.714;2022-08-05T14:07:33;4.07;;;3.70;;
10248;SDS011;5169;50.560;9.714;2022-08-05T14:10:03;8.35;;;4.05;;
10248;SDS011;5169;50.560;9.714;2022-08-05T14:12:50;4.27;;;3.90;;
10248;SDS011;5169;50.560;9.714;2022-08-05T14:15:16;4.82;;;4.30;;
10248;SDS011;5169;50.560;9.714;2022-08-05T14:17:42;5.05;;;4.57;;
10248;SDS011;5169;50.560;9.714;2022-08-05T14:20:10;4.43;;;4.03;;
10248;SDS011;5169;50.560;9.714;2022-08-05T14:22:38;3.90;;;3.57;;
10248;SDS011;5169;50.560;9.714;2022-08-05T14:25:04;5.73;;;4.47;;
10248;SDS011;5169;50.560;9.714;2022-08-05T14:27:30;4.87;;;4.37;;
10248;SDS011;5169;50.560;9.714;2022-08-05T14:29:56;5.13;;;4.63;;
10248;SDS011;5169;50.560;9.714;2022-08-05T14:32:21;5.07;;;4.53;;
10248;SDS011;5169;50.560;9.714;2022-08-05T14:34:47;5.37;;;4.97;;
10248;SDS011;5169;50.560;9.714;2022-08-05T14:37:13;5.20;;;4.73;;
10248;SDS011;5169;50.560;9.714;2022-08-05T14:39:39;6.00;;;5.33;;
10248;SDS011;5169;50.560;9.714;2022-08-05T14:42:04;6.83;;;5.80;;
10248;SDS011;5169;50.560;9.714;2022-08-05T14:44:32;6.37;;;5.77;;
10248;SDS011;5169;50.560;9.714;2022-08-05T14:46:58;7.17;;;6.47;;
10248;SDS011;5169;50.560;9.714;2022-08-05T14:49:26;6.90;;;5.67;;
10248;SDS011;5169;50.560;9.714;2022-08-05T14:51:52;5.97;;;5.37;;
10248;SDS011;5169;50.560;9.714;2022-08-05T14:54:18;6.67;;;5.50;;
10248;SDS011;5169;50.560;9.714;2022-08-05T14:56:44;6.83;;;5.67;;
10248;SDS011;5169;50.560;9.714;2022-08-05T14:59:10;9.47;;;5.37;;
10248;SDS011;5169;50.560;9.714;2022-08-05T15:01:38;6.87;;;4.97;;
10248;SDS011;5169;50.560;9.714;2022-08-05T15:04:06;6.97;;;5.30;;
10248;SDS011;5169;50.560;9.714;2022-08-05T15:06:35;6.17;;;5.33;;
10248;SDS011;5169;50.560;9.714;2022-08-05T15:09:04;6.27;;;5.60;;
10248;SDS011;5169;50.560;9.714;2022-08-05T15:11:30;5.63;;;5.03;;
10248;SDS011;5169;50.560;9.714;2022-08-05T15:13:56;8.20;;;5.40;;
10248;SDS011;5169;50.560;9.714;2022-08-05T15:16:22;6.67;;;5.40;;
10248;SDS011;5169;50.560;9.714;2022-08-05T15:18:52;8.93;;;5.00;;
10248;SDS011;5169;50.560;9.714;2022-08-05T15:21:18;8.57;;;4.80;;
10248;SDS011;5169;50.560;9.714;2022-08-05T15:23:44;5.13;;;4.63;;
10248;SDS011;5169;50.560;9.714;2022-08-05T15:26:09;5.30;;;4.67;;
10248;SDS011;5169;50.560;9.714;2022-08-05T15:28:35;5.87;;;4.40;;
10248;SDS011;5169;50.560;9.714;2022-08-05T15:31:02;5.17;;;3.90;;
10248;SDS011;5169;50.560;9.714;2022-08-05T15:33:28;5.03;;;4.13;;
10248;SDS011;5169;50.560;9.714;2022-08-05T15:35:54;4.33;;;3.93;;
10248;SDS011;5169;50.560;9.714;2022-08-05T15:38:22;8.53;;;4.93;;
10248;SDS011;5169;50.560;9.714;2022-08-05T15:40:47;5.00;;;4.50;;
10248;SDS011;5169;50.560;9.714;2022-08-05T15:43:13;6.03;;;4.47;;
10248;SDS011;5169;50.560;9.714;2022-08-05T15:45:41;6.20;;;4.50;;
10248;SDS011;5169;50.560;9.714;2022-08-05T15:48:11;6.53;;;5.40;;
10248;SDS011;5169;50.560;9.714;2022-08-05T15:50:37;4.90;;;4.40;;
10248;SDS011;5169;50.560;9.714;2022-08-05T15:53:03;5.00;;;4.33;;
10248;SDS011;5169;50.560;9.714;2022-08-05T15:55:28;4.47;;;4.00;;
10248;SDS011;5169;50.560;9.714;2022-08-05T15:57:54;5.00;;;4.20;;
10248;SDS011;5169;50.560;9.714;2022-08-05T16:00:20;5.83;;;4.50;;
10248;SDS011;5169;50.560;9.714;2022-08-05T16:02:45;4.37;;;3.97;;
10248;SDS011;5169;50.560;9.714;2022-08-05T16:05:11;4.73;;;3.90;;
10248;SDS011;5169;50.560;9.714;2022-08-05T16:07:37;5.40;;;3.90;;
10248;SDS011;5169;50.560;9.714;2022-08-05T16:10:02;4.17;;;3.63;;